Terminal Aerodrome Forecast
Issued by NWS

Home | Current Version | Previous Version | Text Only | Print | Product List | Glossary On
Versions: 1 2 3 4 5 6 7 8 9 10 11 12 13 14 15
836
FTUS46 KSGX 271124
TAFONT
TAF
KONT 271124Z 2712/2818 24005KT P6SM BKN035
     FM271800 25008KT P6SM SCT030
     FM272100 25015G25KT P6SM SCT030
     FM280300 VRB05KT P6SM SKC
     FM280600 VRB05KT P6SM SKC WS015/03025KT
     FM280900 03010KT P6SM SKC
     FM281500 04015G25KT P6SM SKC=

USA.gov is the U.S. government's official web portal to all federal, state and local government web resources and services.